Aeroporto :
LOGIN :

Iscrizione | Disclaimer

   EN    FR    IT 

 










Sommario :    VFR   VFR Marginale   IFR   IFR Intensivo   IFR Molto Intensivo
Visibilità : 
Base nubi : 
>= 8 km
>= 3000ft
5 / 8 km
1000 / 3000 ft
1500m / 5 km
500 / 1000 ft
800 / 1500m
200 / 500 ft
< 800m
< 200 ft
Simboli :   Temporali  Nebbia  Neve Forte  Precipitazioni Forti  Vento > 20 kt
SIGMETs :   Varie  Temporali  Ghiacco  Turbolenza  Onda orograficha  Ceneri Vulcaniche






- Altitudine del aeroporto : 74 ft
- Codice IATA : NDZ


ETMN - Cuxhaven Nordholz Sea AB

ULTIMO METAR :
  • 061720Z 23015G25KT 6000 -DZ SCT003 BKN006 06/06 Q0999 YLO

METARs OBSOLETI :
  • 061620Z 22015G25KT 4500 -DZ BR SCT004 BKN006 06/05 Q0999 YLO
  • 061534Z 22017KT 4000 -DZ BR BKN003 BKN008 06/05 Q1000 YLO FCST CANCEL
  • 061520Z 23018G30KT 4000 -DZ BR BKN003 BKN008 06/05 Q1000 YLO YLO TEMPO AMB

TAF AMD TAF ETMN
Valido dal 06 a 12 ore il 06 a 21 ore UTC


061440Z 0612/0621 22015G25KT 5000 -RADZ BKN004
TEMPO 0612/0621 23020G35KT 2000 RADZ OVC002
PROB30 0618/0621 23020G30KT 1000 RADZ OVC001 CANCEL 1530



MetMap, La meteo Aeronautica in un colpo d'occhio ! - Copyright ORBIFLY Dicembre 2007 - Disclaimer

ORBIFLY MET'MAP TEAM :

Programmazione e sviluppo : Alexandra Zaïnal
Concezione : Baudouin d'Aumeries
Aiuto per la programmazione : Marc-Olivier Méhu
Supporto tecnico e logistico : Manuel Goepfert
Aiuto per la traduzione : Arnaldo La Scala

Contatto : metmap@orbifly.com




FONTI E CREDITI :

   NOAA